createdAt,value
2023-08-30T00:02:00.111Z,4.57
2023-08-30T00:04:26.935Z,4.57
2023-08-30T00:06:53.692Z,4.60
2023-08-30T00:09:20.482Z,4.10
2023-08-30T00:11:47.299Z,4.07
2023-08-30T00:14:14.384Z,4.80
2023-08-30T00:16:43.676Z,4.88
2023-08-30T00:19:10.928Z,4.30
2023-08-30T00:21:38.450Z,4.28
2023-08-30T00:24:06.859Z,4.95
2023-08-30T00:26:33.614Z,4.40
2023-08-30T00:29:00.412Z,4.85
2023-08-30T00:31:36.367Z,4.50
2023-08-30T00:34:08.628Z,4.25
2023-08-30T00:36:35.728Z,4.50
2023-08-30T00:39:05.038Z,4.57
2023-08-30T00:41:31.863Z,4.70
2023-08-30T00:43:58.682Z,4.88
2023-08-30T00:46:25.764Z,4.32
2023-08-30T00:48:52.716Z,4.78
2023-08-30T00:51:20.074Z,4.75
2023-08-30T00:53:47.758Z,5.20
2023-08-30T00:56:14.818Z,4.68
2023-08-30T00:58:41.880Z,4.95
2023-08-30T01:01:09.498Z,4.80
2023-08-30T01:03:36.768Z,4.50
2023-08-30T01:06:03.723Z,4.38
2023-08-30T01:08:31.144Z,4.90
2023-08-30T01:11:37.620Z,4.53
2023-08-30T01:14:21.802Z,4.65
2023-08-30T01:16:49.073Z,4.45
2023-08-30T01:19:56.608Z,4.88
2023-08-30T01:23:12.426Z,4.60
2023-08-30T01:26:07.363Z,4.85
2023-08-30T01:28:38.516Z,4.97
2023-08-30T01:31:08.350Z,4.57
2023-08-30T01:33:37.499Z,5.20
2023-08-30T01:36:06.526Z,5.35
2023-08-30T01:38:34.787Z,5.30
2023-08-30T01:41:02.924Z,4.70
2023-08-30T01:43:32.939Z,4.72
2023-08-30T01:46:03.278Z,4.78
2023-08-30T01:48:35.193Z,4.82
2023-08-30T01:51:04.591Z,4.80
2023-08-30T01:53:38.543Z,4.70
2023-08-30T01:56:05.642Z,5.10
2023-08-30T01:58:38.714Z,4.78
2023-08-30T02:01:05.825Z,4.97
2023-08-30T02:03:32.663Z,4.68
2023-08-30T02:06:37.434Z,4.88
2023-08-30T02:09:25.475Z,4.05
2023-08-30T02:11:54.938Z,5.47
2023-08-30T02:14:22.965Z,5.35
2023-08-30T02:16:55.721Z,5.45
2023-08-30T02:19:23.341Z,4.63
2023-08-30T02:21:56.342Z,4.93
2023-08-30T02:24:23.248Z,4.75
2023-08-30T02:26:50.095Z,4.75
2023-08-30T02:29:19.530Z,5.00
2023-08-30T02:31:48.785Z,5.03
2023-08-30T02:34:15.664Z,5.25
2023-08-30T02:36:42.571Z,5.55
2023-08-30T02:39:09.510Z,5.25
2023-08-30T02:41:36.314Z,4.97
2023-08-30T02:44:03.147Z,5.57
2023-08-30T02:46:32.119Z,5.97
2023-08-30T02:49:01.074Z,5.85
2023-08-30T02:51:27.864Z,5.40
2023-08-30T02:53:57.328Z,6.10
2023-08-30T02:56:24.239Z,6.10
2023-08-30T02:58:51.023Z,5.60
2023-08-30T03:01:20.725Z,6.57
2023-08-30T03:03:47.849Z,6.30
2023-08-30T03:06:17.768Z,6.55
2023-08-30T03:08:44.530Z,6.00
2023-08-30T03:11:12.760Z,7.40
2023-08-30T03:13:39.954Z,7.00
2023-08-30T03:16:14.379Z,6.93
2023-08-30T03:18:42.432Z,6.43
2023-08-30T03:21:09.755Z,5.90
2023-08-30T03:23:37.482Z,6.60
2023-08-30T03:26:13.368Z,7.15
2023-08-30T03:28:41.627Z,6.07
2023-08-30T03:31:25.123Z,6.32
2023-08-30T03:33:51.923Z,7.15
2023-08-30T03:36:19.594Z,7.28
2023-08-30T03:38:49.241Z,6.95
2023-08-30T03:41:16.319Z,7.45
2023-08-30T03:43:43.145Z,7.30
2023-08-30T03:46:12.556Z,8.23
2023-08-30T03:48:55.897Z,7.80
2023-08-30T03:51:25.801Z,7.25
2023-08-30T03:53:53.103Z,7.28
2023-08-30T03:56:20.000Z,7.07
2023-08-30T03:58:49.312Z,7.20
2023-08-30T04:01:16.628Z,7.38
2023-08-30T04:03:43.485Z,6.97
2023-08-30T04:06:10.361Z,8.23
2023-08-30T04:08:37.213Z,7.88
2023-08-30T04:11:07.091Z,8.40
2023-08-30T04:13:36.487Z,7.07
2023-08-30T04:16:04.984Z,8.45
2023-08-30T04:18:31.941Z,7.65
2023-08-30T04:20:59.872Z,8.07
2023-08-30T04:23:26.728Z,8.18
2023-08-30T04:25:53.890Z,7.93
2023-08-30T04:28:20.721Z,7.85
2023-08-30T04:30:50.112Z,7.57
2023-08-30T04:33:16.916Z,7.40
2023-08-30T04:35:43.687Z,8.07
2023-08-30T04:38:10.873Z,7.90
2023-08-30T04:40:38.026Z,7.90
2023-08-30T04:43:04.876Z,8.13
2023-08-30T04:45:31.706Z,8.13
2023-08-30T04:48:05.721Z,7.43
2023-08-30T04:50:32.723Z,7.80
2023-08-30T04:52:59.661Z,7.68
2023-08-30T04:55:26.668Z,8.20
2023-08-30T04:57:53.439Z,7.60
2023-08-30T05:00:20.873Z,6.93
2023-08-30T05:02:47.873Z,7.47
2023-08-30T05:05:16.086Z,7.35
2023-08-30T05:07:42.920Z,7.53
2023-08-30T05:10:10.209Z,8.10
2023-08-30T05:12:37.421Z,7.80
2023-08-30T05:15:07.538Z,7.32
2023-08-30T05:17:34.513Z,9.43
2023-08-30T05:20:01.392Z,8.57
2023-08-30T05:22:28.320Z,7.72
2023-08-30T05:24:55.205Z,6.95
2023-08-30T05:27:25.343Z,7.78
2023-08-30T05:29:56.951Z,8.05
2023-08-30T05:32:30.845Z,6.35
2023-08-30T05:35:14.957Z,7.55
2023-08-30T05:38:16.140Z,6.70
2023-08-30T05:40:45.899Z,6.97
2023-08-30T05:43:13.029Z,6.97
2023-08-30T05:45:42.984Z,7.63
2023-08-30T05:48:10.086Z,7.22
2023-08-30T05:50:37.232Z,5.85
2023-08-30T05:53:05.081Z,6.55
2023-08-30T05:55:31.978Z,6.47
2023-08-30T05:57:58.767Z,5.97
2023-08-30T06:00:26.972Z,6.90
2023-08-30T06:02:56.536Z,6.53
2023-08-30T06:05:27.413Z,6.50
2023-08-30T06:07:55.155Z,6.65
2023-08-30T06:10:24.245Z,6.25
2023-08-30T06:12:51.225Z,6.75
2023-08-30T06:15:20.503Z,7.32
2023-08-30T06:17:49.120Z,7.07
2023-08-30T06:20:16.142Z,6.70
2023-08-30T06:22:46.010Z,6.80
2023-08-30T06:25:13.354Z,7.13
2023-08-30T06:27:44.394Z,6.72
2023-08-30T06:30:12.672Z,7.00
2023-08-30T06:32:42.473Z,6.60
2023-08-30T06:35:09.742Z,6.82
2023-08-30T06:37:39.570Z,6.50
2023-08-30T06:40:07.650Z,6.72
2023-08-30T06:42:34.487Z,6.55
2023-08-30T06:45:02.931Z,6.78
2023-08-30T06:47:29.787Z,6.05
2023-08-30T06:49:56.818Z,6.60
2023-08-30T06:52:23.681Z,6.20
2023-08-30T06:54:50.538Z,7.25
2023-08-30T06:57:17.357Z,5.85
2023-08-30T06:59:44.379Z,6.32
2023-08-30T07:02:11.190Z,7.63
2023-08-30T07:04:37.969Z,7.28
2023-08-30T07:07:05.047Z,6.22
2023-08-30T07:09:34.930Z,6.15
2023-08-30T07:12:01.862Z,5.63
2023-08-30T07:14:28.673Z,7.22
2023-08-30T07:16:55.652Z,6.20
2023-08-30T07:19:22.504Z,6.20
2023-08-30T07:21:49.366Z,6.28
2023-08-30T07:24:16.347Z,6.45
2023-08-30T07:26:43.209Z,5.90
2023-08-30T07:29:10.986Z,5.80
2023-08-30T07:31:37.929Z,6.10
2023-08-30T07:34:07.424Z,6.28
2023-08-30T07:36:46.629Z,6.03
2023-08-30T07:39:15.281Z,5.80
2023-08-30T07:41:42.233Z,5.65
2023-08-30T07:44:09.203Z,5.68
2023-08-30T07:46:36.028Z,5.50
2023-08-30T07:49:05.765Z,5.60
2023-08-30T07:51:32.620Z,5.35
2023-08-30T07:53:59.410Z,4.85
2023-08-30T07:56:26.967Z,4.70
2023-08-30T07:58:57.928Z,4.18
2023-08-30T08:01:24.872Z,5.90
2023-08-30T08:04:05.701Z,4.03
2023-08-30T08:06:35.023Z,3.40
2023-08-30T08:09:04.967Z,4.00
2023-08-30T08:11:32.757Z,3.88
2023-08-30T08:14:01.777Z,3.67
2023-08-30T08:16:32.337Z,3.33
2023-08-30T08:19:02.123Z,3.70
2023-08-30T08:21:29.099Z,3.17
2023-08-30T08:23:56.029Z,3.20
2023-08-30T08:26:23.035Z,3.45
2023-08-30T08:28:51.826Z,3.25
2023-08-30T08:31:19.096Z,3.38
2023-08-30T08:33:46.008Z,3.70
2023-08-30T08:36:12.830Z,3.67
2023-08-30T08:38:40.100Z,3.28
2023-08-30T08:41:08.571Z,2.63
2023-08-30T08:43:45.632Z,3.30
2023-08-30T08:46:16.845Z,3.97
2023-08-30T08:48:48.060Z,3.35
2023-08-30T08:51:15.308Z,3.33
2023-08-30T08:53:43.755Z,3.47
2023-08-30T08:56:14.850Z,3.25
2023-08-30T08:58:43.178Z,3.33
2023-08-30T09:01:29.181Z,2.80
2023-08-30T09:04:00.942Z,3.00
2023-08-30T09:06:30.843Z,2.88
2023-08-30T09:08:59.829Z,3.03
2023-08-30T09:11:40.072Z,3.10
2023-08-30T09:14:13.438Z,3.08
2023-08-30T09:16:40.244Z,3.13
2023-08-30T09:19:11.492Z,3.08
2023-08-30T09:21:38.563Z,3.40
2023-08-30T09:24:08.160Z,3.25
2023-08-30T09:26:38.527Z,3.70
2023-08-30T09:29:09.837Z,3.83
2023-08-30T09:31:42.785Z,3.75
2023-08-30T09:34:18.333Z,3.83
2023-08-30T09:36:47.720Z,3.78
2023-08-30T09:39:15.864Z,3.75
2023-08-30T09:41:52.595Z,4.07
2023-08-30T09:44:22.602Z,3.83
2023-08-30T09:46:57.791Z,4.10
2023-08-30T09:49:27.380Z,4.90
2023-08-30T09:51:56.185Z,4.47
2023-08-30T09:54:39.114Z,4.53
2023-08-30T09:57:11.045Z,4.70
2023-08-30T09:59:40.307Z,5.07
2023-08-30T10:02:09.376Z,5.40
2023-08-30T10:04:43.727Z,5.22
2023-08-30T10:07:12.239Z,5.57
2023-08-30T10:09:59.162Z,5.65
2023-08-30T10:12:46.043Z,5.20
2023-08-30T10:15:15.170Z,5.78
2023-08-30T10:17:47.354Z,5.07
2023-08-30T10:20:17.259Z,5.53
2023-08-30T10:22:46.621Z,5.10
2023-08-30T10:25:22.900Z,4.40
2023-08-30T10:27:51.368Z,3.38
2023-08-30T10:30:28.682Z,3.45
2023-08-30T10:32:55.590Z,2.90
2023-08-30T10:35:22.496Z,2.88
2023-08-30T10:38:26.240Z,2.60
2023-08-30T10:41:06.921Z,2.55
2023-08-30T10:43:36.561Z,2.33
2023-08-30T10:46:12.306Z,1.80
2023-08-30T10:48:41.447Z,1.70
2023-08-30T10:51:42.348Z,2.13
2023-08-30T10:54:17.484Z,2.40
2023-08-30T10:56:59.606Z,1.60
2023-08-30T10:59:30.704Z,1.50
2023-08-30T11:02:02.212Z,1.30
2023-08-30T11:04:29.015Z,1.70
2023-08-30T11:06:57.524Z,1.90
2023-08-30T11:09:27.794Z,1.90
2023-08-30T11:11:54.674Z,1.67
2023-08-30T11:14:24.520Z,1.90
2023-08-30T11:16:51.363Z,1.42
2023-08-30T11:19:18.334Z,1.88
2023-08-30T11:21:48.855Z,2.00
2023-08-30T11:24:16.564Z,1.80
2023-08-30T11:26:44.271Z,2.42
2023-08-30T11:29:13.487Z,1.70
2023-08-30T11:31:41.237Z,1.80
2023-08-30T11:34:08.168Z,1.67
2023-08-30T11:36:38.165Z,1.42
2023-08-30T11:39:10.162Z,1.45
2023-08-30T11:41:48.175Z,1.77
2023-08-30T11:44:15.188Z,2.00
2023-08-30T11:46:42.043Z,1.58
2023-08-30T11:49:09.397Z,1.45
2023-08-30T11:51:36.359Z,1.70
2023-08-30T11:54:04.490Z,1.45
2023-08-30T11:56:36.151Z,1.20
2023-08-30T11:59:06.144Z,1.50
2023-08-30T12:01:34.215Z,1.42
2023-08-30T12:04:11.736Z,1.50
2023-08-30T12:06:38.770Z,1.83
2023-08-30T12:09:14.188Z,2.38
2023-08-30T12:11:41.062Z,1.58
2023-08-30T12:14:10.495Z,1.15
2023-08-30T12:16:42.482Z,1.40
2023-08-30T12:19:13.636Z,1.75
2023-08-30T12:21:44.374Z,1.13
2023-08-30T12:24:13.452Z,1.20
2023-08-30T12:26:40.412Z,1.20
2023-08-30T12:29:07.680Z,2.17
2023-08-30T12:31:34.870Z,1.10
2023-08-30T12:34:01.815Z,1.30
2023-08-30T12:36:51.519Z,1.02
2023-08-30T12:39:18.332Z,0.93
2023-08-30T12:41:45.430Z,1.35
2023-08-30T12:44:12.326Z,0.88
2023-08-30T12:46:40.300Z,1.50
2023-08-30T12:49:07.175Z,1.15
2023-08-30T12:51:36.818Z,1.25
2023-08-30T12:54:04.287Z,0.88
2023-08-30T12:56:31.202Z,1.20
2023-08-30T12:58:58.261Z,1.35
2023-08-30T13:01:29.383Z,1.10
2023-08-30T13:03:56.348Z,1.10
2023-08-30T13:06:23.419Z,1.25
2023-08-30T13:08:50.348Z,1.38
2023-08-30T13:11:17.527Z,1.20
2023-08-30T13:13:44.376Z,1.30
2023-08-30T13:16:11.219Z,1.00
2023-08-30T13:18:38.046Z,1.65
2023-08-30T13:21:05.568Z,1.10
2023-08-30T13:23:32.767Z,0.90
2023-08-30T13:25:59.602Z,1.05
2023-08-30T13:28:26.423Z,1.10
2023-08-30T13:30:55.525Z,1.40
2023-08-30T13:33:25.593Z,1.00
2023-08-30T13:35:53.144Z,1.30
2023-08-30T13:38:22.564Z,1.17
2023-08-30T13:40:52.073Z,1.05
2023-08-30T13:43:21.683Z,0.88
2023-08-30T13:45:49.454Z,0.93
2023-08-30T13:48:18.749Z,1.08
2023-08-30T13:50:47.270Z,0.95
2023-08-30T13:53:14.090Z,2.03
2023-08-30T13:55:41.025Z,0.80
2023-08-30T13:58:07.891Z,0.90
2023-08-30T14:00:37.380Z,0.77
2023-08-30T14:03:04.707Z,1.35
2023-08-30T14:05:34.965Z,1.25
2023-08-30T14:08:07.303Z,1.33
2023-08-30T14:10:36.916Z,1.23
2023-08-30T14:13:06.222Z,1.50
2023-08-30T14:15:33.374Z,1.20
2023-08-30T14:18:00.525Z,2.17
2023-08-30T14:20:31.696Z,1.02
2023-08-30T14:22:58.542Z,0.98
2023-08-30T14:25:25.447Z,1.02
2023-08-30T14:27:52.482Z,1.33
2023-08-30T14:30:22.560Z,1.30
2023-08-30T14:32:49.373Z,1.60
2023-08-30T14:35:16.175Z,1.50
2023-08-30T14:37:45.998Z,1.20
2023-08-30T14:40:13.026Z,1.10
2023-08-30T14:42:42.868Z,1.10
2023-08-30T14:45:09.953Z,1.00
2023-08-30T14:47:37.107Z,1.02
2023-08-30T14:50:04.378Z,0.90
2023-08-30T14:52:31.316Z,0.80
2023-08-30T14:54:58.318Z,0.88
2023-08-30T14:57:26.196Z,0.70
2023-08-30T14:59:53.868Z,1.00
2023-08-30T15:02:26.171Z,0.77
2023-08-30T15:04:53.646Z,0.70
2023-08-30T15:07:20.527Z,0.60
2023-08-30T15:09:47.339Z,0.50
2023-08-30T15:12:14.232Z,0.80
2023-08-30T15:14:43.052Z,0.90
2023-08-30T15:17:19.663Z,0.90
2023-08-30T15:19:48.705Z,0.80
2023-08-30T15:22:17.872Z,0.70
2023-08-30T15:24:44.655Z,0.73
2023-08-30T15:27:11.568Z,0.60
2023-08-30T15:29:38.364Z,0.50
2023-08-30T15:32:05.461Z,1.13
2023-08-30T15:34:32.331Z,1.15
2023-08-30T15:37:01.503Z,0.70
2023-08-30T15:39:28.281Z,0.80
2023-08-30T15:41:55.120Z,0.70
2023-08-30T15:44:21.898Z,0.80
2023-08-30T15:46:51.745Z,0.80
2023-08-30T15:49:18.528Z,0.82
2023-08-30T15:51:45.378Z,0.70
2023-08-30T15:54:14.742Z,1.10
2023-08-30T15:56:41.774Z,0.85
2023-08-30T15:59:08.612Z,1.20
2023-08-30T16:01:35.652Z,0.95
2023-08-30T16:04:02.785Z,1.38
2023-08-30T16:07:04.228Z,0.90
2023-08-30T16:09:31.102Z,0.93
2023-08-30T16:11:57.907Z,0.85
2023-08-30T16:14:27.453Z,1.10
2023-08-30T16:16:54.222Z,1.30
2023-08-30T16:19:26.332Z,0.95
2023-08-30T16:21:54.869Z,0.90
2023-08-30T16:24:27.662Z,0.77
2023-08-30T16:27:01.306Z,0.77
2023-08-30T16:29:28.146Z,0.70
2023-08-30T16:31:55.562Z,0.65
2023-08-30T16:34:22.984Z,0.63
2023-08-30T16:36:50.123Z,0.88
2023-08-30T16:39:28.330Z,0.57
2023-08-30T16:41:55.092Z,1.85
2023-08-30T16:44:21.841Z,0.70
2023-08-30T16:46:51.808Z,0.55
2023-08-30T16:49:18.743Z,0.60
2023-08-30T16:51:45.564Z,0.63
2023-08-30T16:54:15.388Z,0.60
2023-08-30T16:56:42.177Z,0.60
2023-08-30T16:59:09.010Z,0.68
2023-08-30T17:01:35.883Z,0.70
2023-08-30T17:04:02.924Z,0.68
2023-08-30T17:06:29.770Z,0.60
2023-08-30T17:08:56.610Z,0.60
2023-08-30T17:11:23.434Z,0.60
2023-08-30T17:13:50.265Z,0.88
2023-08-30T17:16:17.040Z,0.80
2023-08-30T17:18:43.917Z,0.40
2023-08-30T17:21:14.976Z,0.52
2023-08-30T17:23:42.133Z,0.80
2023-08-30T17:26:09.049Z,0.68
2023-08-30T17:28:45.577Z,0.70
2023-08-30T17:31:12.528Z,0.63
2023-08-30T17:33:40.216Z,0.63
2023-08-30T17:36:07.447Z,0.60
2023-08-30T17:38:34.472Z,0.57
2023-08-30T17:41:01.265Z,0.63
2023-08-30T17:43:28.050Z,0.80
2023-08-30T17:45:55.274Z,0.50
2023-08-30T17:48:25.190Z,0.60
2023-08-30T17:50:52.020Z,0.50
2023-08-30T17:53:19.932Z,0.70
2023-08-30T17:56:00.654Z,0.90
2023-08-30T17:58:28.962Z,0.65
2023-08-30T18:00:59.027Z,0.90
2023-08-30T18:03:31.058Z,1.20
2023-08-30T18:06:08.870Z,1.88
2023-08-30T18:08:35.725Z,0.85
2023-08-30T18:11:04.708Z,0.60
2023-08-30T18:13:31.676Z,0.75
2023-08-30T18:15:58.992Z,0.73
2023-08-30T18:18:25.859Z,0.90
2023-08-30T18:20:52.705Z,0.77
2023-08-30T18:23:19.490Z,0.75
2023-08-30T18:25:46.586Z,0.75
2023-08-30T18:28:17.498Z,0.80
2023-08-30T18:30:46.514Z,0.70
2023-08-30T18:33:14.581Z,0.50
2023-08-30T18:35:41.842Z,0.60
2023-08-30T18:38:08.898Z,1.08
2023-08-30T18:40:35.745Z,0.77
2023-08-30T18:43:02.564Z,0.85
2023-08-30T18:45:29.479Z,1.48
2023-08-30T18:47:56.475Z,1.00
2023-08-30T18:50:26.254Z,0.90
2023-08-30T18:52:55.256Z,0.88
2023-08-30T18:55:22.133Z,0.82
2023-08-30T18:57:48.941Z,0.73
2023-08-30T19:00:19.262Z,1.38
2023-08-30T19:02:49.355Z,1.13
2023-08-30T19:05:16.264Z,0.80
2023-08-30T19:07:44.409Z,0.70
2023-08-30T19:10:12.214Z,0.82
2023-08-30T19:12:39.006Z,0.85
2023-08-30T19:15:06.813Z,0.77
2023-08-30T19:17:33.751Z,0.55
2023-08-30T19:20:00.690Z,0.95
2023-08-30T19:22:27.661Z,1.00
2023-08-30T19:24:54.789Z,0.80
2023-08-30T19:27:21.652Z,0.73
2023-08-30T19:29:48.594Z,0.88
2023-08-30T19:32:19.914Z,0.60
2023-08-30T19:34:50.894Z,1.00
2023-08-30T19:37:25.757Z,0.85
2023-08-30T19:39:53.240Z,0.73
2023-08-30T19:42:23.334Z,0.60
2023-08-30T19:44:58.775Z,0.80
2023-08-30T19:47:26.237Z,0.70
2023-08-30T19:49:53.579Z,0.60
2023-08-30T19:52:24.117Z,0.70
2023-08-30T19:54:56.328Z,0.50
2023-08-30T19:57:23.159Z,0.68
2023-08-30T19:59:50.072Z,0.90
2023-08-30T20:02:19.401Z,0.80
2023-08-30T20:04:49.383Z,1.30
2023-08-30T20:07:16.247Z,1.00
2023-08-30T20:09:43.342Z,0.68
2023-08-30T20:12:12.415Z,0.80
2023-08-30T20:14:39.228Z,0.60
2023-08-30T20:17:06.061Z,0.50
2023-08-30T20:19:33.054Z,0.47
2023-08-30T20:22:01.254Z,0.60
2023-08-30T20:24:28.222Z,0.50
2023-08-30T20:26:55.106Z,0.47
2023-08-30T20:29:23.243Z,0.47
2023-08-30T20:31:50.247Z,0.50
2023-08-30T20:34:19.495Z,0.55
2023-08-30T20:36:46.441Z,0.60
2023-08-30T20:39:13.479Z,0.50
2023-08-30T20:41:40.564Z,0.98
2023-08-30T20:44:10.651Z,0.40
2023-08-30T20:46:37.806Z,0.60
2023-08-30T20:49:07.103Z,0.60
2023-08-30T20:51:33.940Z,0.70
2023-08-30T20:54:06.354Z,0.88
2023-08-30T20:56:33.287Z,0.60
2023-08-30T20:59:04.500Z,0.60
2023-08-30T21:01:34.189Z,0.70
2023-08-30T21:04:01.370Z,0.70
2023-08-30T21:06:28.790Z,0.40
2023-08-30T21:08:57.453Z,0.60
2023-08-30T21:11:24.924Z,0.50
2023-08-30T21:13:54.608Z,0.60
2023-08-30T21:16:21.563Z,0.50
2023-08-30T21:18:48.426Z,0.80
2023-08-30T21:21:15.359Z,0.50
2023-08-30T21:23:42.118Z,0.70
2023-08-30T21:26:08.980Z,0.45
2023-08-30T21:28:35.866Z,0.70
2023-08-30T21:31:03.682Z,0.75
2023-08-30T21:33:33.153Z,0.55
2023-08-30T21:36:00.857Z,0.70
2023-08-30T21:38:27.694Z,0.80
2023-08-30T21:40:57.088Z,0.80
2023-08-30T21:43:23.834Z,0.88
2023-08-30T21:45:50.592Z,0.80
2023-08-30T21:48:17.522Z,1.02
2023-08-30T21:50:45.496Z,1.10
2023-08-30T21:53:12.522Z,0.80
2023-08-30T21:55:39.688Z,0.85
2023-08-30T21:58:06.531Z,0.93
2023-08-30T22:00:36.265Z,1.23
2023-08-30T22:03:03.531Z,1.08
2023-08-30T22:05:31.403Z,1.10
2023-08-30T22:07:58.265Z,0.93
2023-08-30T22:10:25.197Z,0.95
2023-08-30T22:12:52.867Z,1.08
2023-08-30T22:15:19.756Z,1.27
2023-08-30T22:17:51.107Z,0.95
2023-08-30T22:20:21.139Z,0.70
2023-08-30T22:22:49.125Z,0.55
2023-08-30T22:25:20.440Z,0.80
2023-08-30T22:27:50.882Z,0.85
2023-08-30T22:30:17.871Z,0.50
2023-08-30T22:32:44.974Z,0.80
2023-08-30T22:35:18.227Z,0.57
2023-08-30T22:37:48.123Z,0.55
2023-08-30T22:40:14.992Z,0.50
2023-08-30T22:42:42.456Z,0.60
2023-08-30T22:45:10.603Z,0.60
2023-08-30T22:47:37.690Z,0.70
2023-08-30T22:50:06.033Z,0.57
2023-08-30T22:52:35.608Z,0.70
2023-08-30T22:55:03.564Z,0.43
2023-08-30T22:57:36.596Z,0.80
2023-08-30T23:00:11.297Z,0.60
2023-08-30T23:02:38.972Z,0.50
2023-08-30T23:05:07.171Z,0.55
2023-08-30T23:07:34.305Z,0.90
2023-08-30T23:10:05.302Z,0.60
2023-08-30T23:12:32.366Z,1.05
2023-08-30T23:15:01.666Z,0.57
2023-08-30T23:17:28.550Z,0.63
2023-08-30T23:19:58.995Z,0.77
2023-08-30T23:22:28.433Z,0.68
2023-08-30T23:24:55.235Z,0.70
2023-08-30T23:27:22.043Z,0.68
2023-08-30T23:29:52.335Z,0.60
2023-08-30T23:32:22.276Z,0.60
2023-08-30T23:34:49.081Z,0.77
2023-08-30T23:37:16.567Z,0.82
2023-08-30T23:39:43.378Z,0.60
2023-08-30T23:42:10.223Z,0.50
2023-08-30T23:44:39.496Z,0.63
2023-08-30T23:47:06.477Z,0.73
2023-08-30T23:49:33.866Z,0.50
2023-08-30T23:52:04.323Z,0.85
2023-08-30T23:54:31.429Z,0.90
2023-08-30T23:56:58.623Z,0.68
2023-08-30T23:59:27.911Z,0.85
